Airfield :
LOGIN :

Register | Disclaimer

   EN    FR    IT 

 










Legend :    VFR   Marginal VFR   IFR   Intensive IFR   Very Intensive IFR
Visi :
Ceiling :
>= 8 km
>= 3000ft
5 to 8 km
1000 to 3000 ft
1500m to 5 km
500 to 1000 ft
800 to 1500m
200 to 500 ft
< 800m
< 200 ft
Symbols :   Thunderstorms  Fog  Heavy snow  Heavy precipitations  Wind > 20 kt
SIGMETs :     Misc.  Thunderstorms  Icing  Turbulence  Mountain Waves  Volcanic Ashes






- Airport Elevation : 87 ft
- IATA code : FSC


LFKF - Figari

CURRENT METAR :
  • 210430Z AUTO 07007KT 040V100 9999 FEW023 BKN072 BKN120 12/08 Q1016 NOSIG

EXPIRED METARs :
  • 210400Z AUTO 08006KT 040V100 9999 FEW022 BKN074 BKN130 11/08 Q1016 NOSIG
  • 210330Z AUTO 09006KT 9999 FEW074 SCT160 10/05 Q1017 NOSIG
  • 210300Z AUTO 09006KT 9999 FEW072 SCT160 09/04 Q1017
  • 210230Z AUTO 07005KT CAVOK 09/04 Q1017
  • 210200Z AUTO 06005KT 9999 FEW072 SCT190 07/04 Q1017

TAF TAF LFKF
Valid from the 21 at 03:00 until the 22 at 03:00 UTC


210200Z 2103/2203 04010KT 9999 FEW040 SCT150 BKN240
TEMPO 2112/2124 4000 RA BKN025 FEW035CB BKN060
PROB40
TEMPO 2114/2121 2000 TSRA BKN010 SCT030CB BKN050



MET'MAP, your aeronautical weather chart ! - Copyright ORBIFLY December 2007 - Disclaimer

ORBIFLY MET'MAP TEAM :

Programming & Development : Alexandra Zaïnal
Concept & original design : Baudouin d'Aumeries
Assistance for programming : Marc-Olivier Méhu
Technical & hardware support : Manuel Goepfert

Contact : metmap@orbifly.com




SOURCES & CREDITS :

   NOAA